createdAt,value
2023-01-10T04:04:17.642Z,4.65
2023-01-10T04:07:28.274Z,4.69
2023-01-10T04:10:38.479Z,4.73
2023-01-10T04:13:48.813Z,4.78
2023-01-10T04:16:58.759Z,4.81
2023-01-10T04:20:11.272Z,4.81
2023-01-10T04:23:21.143Z,4.79
2023-01-10T04:26:31.170Z,4.83
2023-01-10T04:29:41.154Z,4.85
2023-01-10T04:32:51.541Z,4.76
2023-01-10T04:36:03.044Z,4.87
2023-01-10T04:39:13.341Z,4.95
2023-01-10T04:42:23.488Z,5.00
2023-01-10T04:45:33.477Z,5.05
2023-01-10T04:48:43.468Z,5.06
2023-01-10T04:51:57.465Z,5.13
2023-01-10T04:55:07.932Z,5.11
2023-01-10T04:58:17.971Z,5.24
2023-01-10T05:01:28.076Z,5.25
2023-01-10T05:04:38.043Z,5.26
2023-01-10T05:07:49.474Z,5.31
2023-01-10T05:10:59.414Z,5.35
2023-01-10T05:14:09.353Z,5.41
2023-01-10T05:17:19.236Z,5.39
2023-01-10T05:20:29.275Z,5.37
2023-01-10T05:23:41.415Z,5.33
2023-01-10T05:26:51.301Z,5.24
2023-01-10T05:30:01.276Z,5.22
2023-01-10T05:33:11.426Z,5.20
2023-01-10T05:36:21.418Z,5.21
2023-01-10T05:39:32.615Z,5.16
2023-01-10T05:42:42.953Z,5.22
2023-01-10T05:45:53.425Z,5.21
2023-01-10T05:49:03.422Z,5.20
2023-01-10T05:52:13.414Z,5.18
2023-01-10T05:55:24.585Z,5.09
2023-01-10T05:58:34.542Z,5.14
2023-01-10T07:41:50.493Z,4.61
2023-01-10T07:45:00.483Z,4.57
2023-01-10T07:48:11.198Z,4.61
2023-01-10T07:51:21.238Z,4.67
2023-01-10T07:54:31.222Z,4.71
2023-01-10T07:57:42.615Z,4.71
2023-01-10T08:00:52.808Z,4.79
2023-01-10T08:04:03.089Z,4.85
2023-01-10T08:07:15.592Z,4.92
2023-01-10T08:10:26.069Z,4.98
2023-01-10T08:13:37.497Z,5.00
2023-01-10T08:16:47.661Z,5.09
2023-01-10T08:19:57.609Z,5.15
2023-01-10T08:23:07.724Z,5.24
2023-01-10T08:26:17.807Z,5.34
2023-01-10T08:29:29.576Z,5.48
2023-01-10T08:32:39.991Z,5.39
2023-01-10T08:35:50.182Z,5.41
2023-01-10T08:39:00.292Z,5.36
2023-01-10T08:42:10.543Z,5.43
2023-01-10T08:45:21.839Z,5.42
2023-01-10T08:48:31.751Z,5.55
2023-01-10T08:51:41.681Z,5.68
2023-01-10T08:54:51.818Z,5.72
2023-01-10T08:58:02.099Z,5.67
2023-01-10T09:01:14.553Z,5.64
2023-01-10T09:04:24.523Z,5.69
2023-01-10T09:07:34.600Z,5.59
2023-01-10T09:10:44.716Z,5.68
2023-01-10T09:13:54.735Z,5.73
2023-01-10T09:17:06.024Z,5.64
2023-01-10T09:20:16.308Z,5.72
2023-01-10T09:23:26.353Z,5.67
2023-01-10T09:26:36.366Z,5.67
2023-01-10T09:29:46.216Z,5.85
2023-01-10T09:32:58.802Z,5.84
2023-01-10T09:36:10.341Z,5.89
2023-01-10T09:39:21.620Z,6.01
2023-01-10T09:42:44.552Z,6.15
2023-01-10T09:46:02.463Z,6.17
2023-01-10T09:49:22.003Z,6.30
2023-01-10T09:52:35.659Z,6.38
2023-01-10T09:55:51.233Z,6.37
2023-01-10T09:59:03.138Z,6.41
2023-01-10T10:02:25.719Z,6.39
2023-01-10T10:05:37.741Z,6.85
2023-01-10T10:08:48.767Z,7.07
2023-01-10T10:12:11.719Z,7.40
2023-01-10T10:15:30.168Z,7.61
2023-01-10T10:18:50.356Z,7.46
2023-01-10T10:22:13.496Z,7.18
2023-01-10T10:25:41.136Z,7.15
2023-01-10T10:29:08.475Z,7.16
2023-01-10T10:32:32.246Z,7.26
2023-01-10T10:35:46.538Z,7.71
2023-01-10T10:39:00.888Z,7.77
2023-01-10T10:42:14.524Z,7.76
2023-01-10T10:45:30.761Z,7.71
2023-01-10T10:48:43.639Z,7.88
2023-01-10T10:51:55.082Z,8.14
2023-01-10T10:55:08.624Z,7.99
2023-01-10T10:58:19.811Z,8.09
2023-01-10T11:01:30.189Z,8.31
2023-01-10T11:04:41.243Z,8.20
2023-01-10T11:07:54.244Z,8.04
2023-01-10T11:11:16.889Z,8.06
2023-01-10T11:14:42.483Z,8.20
2023-01-10T11:18:05.765Z,8.26
2023-01-10T11:21:21.256Z,8.62
2023-01-10T11:24:34.873Z,8.97
2023-01-10T11:27:48.988Z,8.67
2023-01-10T11:31:00.915Z,8.39
2023-01-10T11:34:23.337Z,8.35
2023-01-10T11:37:35.713Z,8.20
2023-01-10T11:40:55.873Z,8.54
2023-01-10T11:44:19.572Z,8.97
2023-01-10T11:47:30.002Z,9.15
2023-01-10T11:50:50.384Z,8.94
2023-01-10T11:54:02.239Z,8.82
2023-01-10T11:57:19.423Z,8.98
2023-01-10T12:00:38.020Z,9.35
2023-01-10T12:03:48.426Z,9.59
2023-01-10T12:07:03.256Z,9.99
2023-01-10T12:10:21.547Z,9.67
2023-01-10T12:13:43.656Z,9.30
2023-01-10T12:17:02.309Z,8.89
2023-01-10T12:20:16.161Z,8.49
2023-01-10T12:23:26.855Z,8.79
2023-01-10T12:26:37.565Z,8.68
2023-01-10T12:29:55.131Z,8.77
2023-01-10T12:33:12.730Z,8.87
2023-01-10T12:36:33.446Z,8.47
2023-01-10T12:39:48.195Z,8.08
2023-01-10T12:43:14.902Z,7.98
2023-01-10T12:47:00.115Z,7.89
2023-01-10T12:50:07.116Z,7.56
2023-01-10T12:53:30.331Z,7.30
2023-01-10T12:56:41.149Z,7.21
2023-01-10T12:59:53.104Z,7.34
2023-01-10T13:03:07.399Z,7.13
2023-01-10T13:06:26.133Z,7.03
2023-01-10T13:09:36.436Z,7.05
2023-01-10T13:12:51.760Z,6.95
2023-01-10T13:16:18.898Z,6.95
2023-01-10T13:19:29.452Z,7.11
2023-01-10T13:22:40.654Z,7.20
2023-01-10T13:25:56.971Z,7.33
2023-01-10T13:29:13.282Z,7.44
2023-01-10T13:32:27.786Z,7.51
2023-01-10T13:35:42.098Z,7.49
2023-01-10T13:38:56.225Z,7.43
2023-01-10T13:42:36.105Z,7.41
2023-01-10T13:45:46.104Z,7.38
2023-01-10T13:49:23.074Z,7.37
2023-01-10T13:52:34.395Z,7.28
2023-01-10T13:55:57.347Z,7.25
2023-01-10T13:59:24.568Z,7.19
2023-01-10T14:02:34.642Z,7.33
2023-01-10T14:05:49.479Z,7.28
2023-01-10T14:09:02.589Z,7.35
2023-01-10T14:12:26.402Z,7.10
2023-01-10T14:15:40.389Z,7.17
2023-01-10T14:18:50.799Z,7.06
2023-01-10T14:22:03.091Z,7.04
2023-01-10T14:25:20.159Z,7.09
2023-01-10T14:28:34.405Z,7.06
2023-01-10T14:31:47.202Z,7.01
2023-01-10T14:34:57.780Z,6.92
2023-01-10T14:38:09.865Z,6.72
2023-01-10T14:41:25.004Z,6.62
2023-01-10T14:44:45.833Z,6.58
2023-01-10T14:47:55.861Z,6.65
2023-01-10T14:51:17.348Z,6.84
2023-01-10T14:54:29.675Z,6.71
2023-01-10T14:57:39.840Z,6.72
2023-01-10T15:00:52.429Z,6.70
2023-01-10T15:04:03.127Z,6.52
2023-01-10T15:07:16.940Z,6.50
2023-01-10T15:10:31.049Z,6.28
2023-01-10T15:13:51.891Z,6.38
2023-01-10T15:17:06.414Z,6.28
2023-01-10T15:20:17.919Z,6.36
2023-01-10T15:23:35.906Z,6.40
2023-01-10T15:26:46.060Z,6.27
2023-01-10T15:29:56.993Z,6.18
2023-01-10T15:33:14.320Z,6.20
2023-01-10T15:36:29.507Z,6.11
2023-01-10T15:39:41.766Z,6.06
2023-01-10T15:42:52.005Z,6.17
2023-01-10T15:46:03.805Z,6.22
2023-01-10T15:49:25.232Z,6.19
2023-01-10T15:52:35.458Z,6.14
2023-01-10T15:55:48.214Z,6.05
2023-01-10T15:59:00.136Z,6.08
2023-01-10T16:02:22.964Z,6.01
2023-01-10T16:05:34.319Z,5.98
2023-01-10T16:08:49.884Z,6.03
2023-01-10T16:12:10.814Z,5.98
2023-01-10T16:15:23.293Z,6.01
2023-01-10T16:18:33.273Z,5.93
2023-01-10T16:21:47.740Z,5.91
2023-01-10T16:24:57.634Z,5.86
2023-01-10T16:28:10.083Z,5.87
2023-01-10T16:31:20.074Z,5.85
2023-01-10T16:34:33.992Z,5.84
2023-01-10T16:37:45.318Z,5.86
2023-01-10T16:40:58.948Z,5.93
2023-01-10T16:44:08.371Z,5.93
2023-01-10T16:47:18.402Z,5.87
2023-01-10T16:50:28.829Z,5.99
2023-01-10T16:53:40.346Z,6.06
2023-01-10T16:56:51.077Z,6.00
2023-01-10T17:00:01.095Z,5.97
2023-01-10T17:03:16.461Z,5.96
2023-01-10T17:06:26.660Z,5.98
2023-01-10T17:09:37.974Z,5.98
2023-01-10T17:12:48.316Z,5.94
2023-01-10T17:15:58.595Z,5.97
2023-01-10T17:19:09.678Z,5.99
2023-01-10T17:22:19.942Z,5.94
2023-01-10T17:25:31.221Z,6.02
2023-01-10T17:28:41.809Z,5.99
2023-01-10T17:31:51.937Z,6.00
2023-01-10T17:35:02.020Z,5.85
2023-01-10T17:38:13.429Z,5.85
2023-01-10T17:41:24.685Z,5.81
2023-01-10T17:44:34.581Z,5.82
2023-01-10T17:47:44.579Z,5.88
2023-01-10T17:50:58.400Z,5.87
2023-01-10T17:54:09.123Z,5.90
2023-01-10T17:57:20.351Z,5.86
2023-01-10T18:00:30.655Z,5.85
2023-01-10T18:03:40.841Z,5.81
2023-01-10T18:06:52.410Z,5.82
2023-01-10T18:10:02.377Z,5.91
2023-01-10T18:13:14.994Z,5.96
2023-01-10T18:16:27.178Z,5.90
2023-01-10T18:19:37.775Z,5.94
2023-01-10T18:22:58.612Z,5.97
2023-01-10T18:26:10.810Z,5.97
2023-01-10T18:29:22.102Z,6.10
2023-01-10T18:32:32.748Z,6.06
2023-01-10T18:35:42.914Z,5.99
2023-01-10T18:38:53.406Z,6.03
2023-01-10T18:42:03.469Z,6.07
2023-01-10T18:45:14.891Z,6.03
2023-01-10T18:48:25.935Z,6.02
2023-01-10T18:51:36.085Z,6.00
2023-01-10T18:54:47.543Z,6.01
2023-01-10T18:57:57.703Z,5.99
2023-01-10T19:01:11.842Z,6.08
2023-01-10T19:04:21.937Z,6.15
2023-01-10T19:07:31.837Z,6.15
2023-01-10T19:11:03.671Z,6.17
2023-01-10T19:14:13.843Z,6.14
2023-01-10T19:17:26.006Z,6.15
2023-01-10T19:20:36.004Z,6.17
2023-01-10T19:23:47.742Z,6.21
2023-01-10T19:26:57.926Z,6.14
2023-01-10T19:30:10.042Z,6.05
2023-01-10T19:33:21.661Z,6.09
2023-01-10T19:36:34.645Z,6.07
2023-01-10T19:39:44.730Z,6.05
2023-01-10T19:42:54.938Z,6.09
2023-01-10T19:46:08.898Z,6.18
2023-01-10T19:49:20.725Z,6.17
2023-01-10T19:52:30.776Z,6.15
2023-01-10T19:55:40.854Z,6.09
2023-01-10T19:58:51.752Z,6.06
2023-01-10T20:02:02.404Z,6.06
2023-01-10T20:05:13.840Z,6.22
2023-01-10T20:08:23.975Z,6.28
2023-01-10T20:11:38.039Z,6.19
2023-01-10T20:14:49.386Z,6.14
2023-01-10T20:17:59.255Z,5.98
2023-01-10T20:21:12.861Z,5.93
2023-01-10T20:24:23.151Z,5.88
2023-01-10T20:27:33.126Z,5.98
2023-01-10T20:30:43.210Z,5.97
2023-01-10T20:33:53.278Z,6.01
2023-01-10T20:37:04.716Z,6.05
2023-01-10T20:40:15.079Z,5.97
2023-01-10T20:43:25.428Z,5.94
2023-01-10T20:46:36.789Z,5.96
2023-01-10T20:49:47.099Z,5.88
2023-01-10T20:52:58.972Z,5.90
2023-01-10T20:56:12.551Z,5.82
2023-01-10T20:59:24.532Z,5.94
2023-01-10T21:02:36.029Z,5.82
2023-01-10T21:05:50.573Z,5.80
